createdAt,value
2022-09-24T00:03:23.067Z,13.90
2022-09-24T00:07:24.233Z,14.00
2022-09-24T00:11:27.982Z,13.60
2022-09-24T00:15:29.131Z,13.40
2022-09-24T00:19:30.299Z,13.50
2022-09-24T00:23:31.231Z,14.00
2022-09-24T00:27:32.205Z,14.00
2022-09-24T00:31:33.700Z,14.20
2022-09-24T00:35:36.830Z,14.00
2022-09-24T00:39:39.060Z,14.10
2022-09-24T00:43:40.518Z,14.00
2022-09-24T00:47:42.646Z,14.10
2022-09-24T00:51:46.319Z,13.90
2022-09-24T00:55:51.047Z,14.20
2022-09-24T00:59:54.022Z,14.20
2022-09-24T01:03:56.371Z,14.20
2022-09-24T01:07:57.559Z,14.20
2022-09-24T01:12:11.318Z,14.00
2022-09-24T01:16:38.329Z,14.30
2022-09-24T01:20:52.146Z,14.00
2022-09-24T01:25:02.875Z,13.70
2022-09-24T01:29:42.672Z,13.80
2022-09-24T01:38:00.341Z,13.60
2022-09-24T01:42:01.474Z,13.40
2022-09-24T01:46:05.769Z,13.60
2022-09-24T01:50:10.376Z,13.90
2022-09-24T01:54:34.861Z,13.80
2022-09-24T01:58:42.440Z,13.50
2022-09-24T02:02:50.191Z,13.80
2022-09-24T02:06:58.104Z,13.80
2022-09-24T02:11:05.971Z,13.70
2022-09-24T02:15:16.928Z,13.60
2022-09-24T02:19:21.625Z,13.40
2022-09-24T02:23:25.089Z,13.30
2022-09-24T02:27:29.593Z,13.20
2022-09-24T02:31:34.490Z,13.20
2022-09-24T02:35:37.693Z,12.90
2022-09-24T02:39:38.840Z,12.60
2022-09-24T02:43:40.414Z,12.60
2022-09-24T02:47:41.706Z,12.90
2022-09-24T02:51:43.336Z,13.10
2022-09-24T02:55:44.293Z,13.10
2022-09-24T02:59:46.071Z,12.90
2022-09-24T03:03:47.613Z,12.70
2022-09-24T03:07:49.665Z,12.60
2022-09-24T03:11:51.212Z,12.50
2022-09-24T03:15:52.339Z,12.40
2022-09-24T03:19:53.309Z,12.30
2022-09-24T03:23:54.291Z,11.80
2022-09-24T03:27:55.567Z,12.10
2022-09-24T03:31:56.546Z,11.60
2022-09-24T03:36:03.926Z,10.10
2022-09-24T03:40:07.242Z,11.20
2022-09-24T03:44:08.338Z,11.90
2022-09-24T03:48:09.409Z,11.70
2022-09-24T03:52:10.396Z,12.10
2022-09-24T03:56:12.065Z,11.60
2022-09-24T04:00:13.747Z,11.10
2022-09-24T04:04:16.209Z,11.90
2022-09-24T04:08:18.728Z,12.00
2022-09-24T04:12:21.540Z,11.80
2022-09-24T04:16:22.497Z,11.50
2022-09-24T04:20:25.835Z,11.40
2022-09-24T04:24:26.892Z,11.40
2022-09-24T04:28:29.336Z,11.90
2022-09-24T04:32:30.413Z,11.90
2022-09-24T04:36:31.366Z,12.00
2022-09-24T04:40:33.118Z,12.10
2022-09-24T04:44:34.227Z,12.00
2022-09-24T04:48:38.975Z,11.90
2022-09-24T04:52:39.963Z,11.90
2022-09-24T04:56:41.001Z,11.80
2022-09-24T05:00:42.573Z,11.70
2022-09-24T05:04:43.586Z,11.30
2022-09-24T05:08:44.579Z,11.60
2022-09-24T05:12:45.581Z,11.60
2022-09-24T05:16:46.545Z,11.10
2022-09-24T05:20:47.601Z,10.70
2022-09-24T05:24:48.579Z,10.30
2022-09-24T05:28:49.561Z,10.90
2022-09-24T05:32:53.658Z,11.80
2022-09-24T05:36:54.638Z,11.50
2022-09-24T05:40:55.913Z,11.80
2022-09-24T05:44:56.986Z,11.70
2022-09-24T05:48:58.650Z,11.90
2022-09-24T05:53:04.605Z,12.10
2022-09-24T05:57:05.633Z,12.10
2022-09-24T06:01:06.701Z,12.80
2022-09-24T06:05:08.848Z,13.00
2022-09-24T06:09:10.146Z,12.90
2022-09-24T06:13:11.519Z,13.30
2022-09-24T06:17:12.516Z,13.30
2022-09-24T06:21:15.298Z,13.40
2022-09-24T06:25:16.235Z,13.50
2022-09-24T06:29:17.623Z,13.80
2022-09-24T06:33:22.794Z,14.40
2022-09-24T06:37:23.714Z,14.50
2022-09-24T06:41:24.600Z,14.50
2022-09-24T06:45:26.375Z,14.80
2022-09-24T06:49:33.661Z,15.00
2022-09-24T06:53:31.299Z,15.40
2022-09-24T06:57:32.276Z,15.80
2022-09-24T07:01:33.496Z,16.60
2022-09-24T07:05:38.330Z,16.40
2022-09-24T07:09:39.681Z,16.20
2022-09-24T07:13:40.677Z,16.20
2022-09-24T07:17:41.621Z,17.10
2022-09-24T07:21:42.702Z,17.70
2022-09-24T07:25:44.144Z,18.00
2022-09-24T07:29:45.252Z,18.10
2022-09-24T07:33:46.356Z,18.80
2022-09-24T07:37:47.300Z,19.60
2022-09-24T07:41:48.231Z,19.90
2022-09-24T07:45:49.415Z,20.50
2022-09-24T07:49:50.443Z,21.40
2022-09-24T07:53:51.843Z,20.60
2022-09-24T07:57:54.716Z,20.30
2022-09-24T08:01:56.291Z,20.30
2022-09-24T08:05:59.270Z,19.20
2022-09-24T08:10:00.821Z,19.90
2022-09-24T08:14:01.881Z,20.50
2022-09-24T08:18:04.077Z,21.20
2022-09-24T08:22:06.827Z,21.30
2022-09-24T08:26:09.511Z,20.20
2022-09-24T08:30:11.421Z,19.60
2022-09-24T08:34:12.492Z,20.40
2022-09-24T08:42:26.566Z,20.10
2022-09-24T08:46:55.973Z,20.70
2022-09-24T08:51:01.561Z,19.30
2022-09-24T08:55:12.593Z,18.30
2022-09-24T08:59:36.048Z,19.50
2022-09-24T09:03:52.819Z,18.40
2022-09-24T09:08:07.165Z,19.70
2022-09-24T09:12:10.400Z,18.80
2022-09-24T09:16:27.133Z,19.60
2022-09-24T09:20:38.003Z,18.20
2022-09-24T09:24:50.507Z,17.30
2022-09-24T09:28:51.696Z,19.30
2022-09-24T09:33:17.974Z,19.30
2022-09-24T09:37:38.103Z,18.80
2022-09-24T09:41:54.787Z,19.10
2022-09-24T09:46:14.933Z,19.30
2022-09-24T09:50:20.349Z,19.00
2022-09-24T09:54:21.382Z,18.80
2022-09-24T09:58:25.602Z,20.20
2022-09-24T10:02:30.593Z,21.10
2022-09-24T10:06:34.395Z,21.60
2022-09-24T10:10:56.067Z,22.10
2022-09-24T10:15:00.515Z,22.20
2022-09-24T10:19:01.799Z,22.00
2022-09-24T10:23:06.490Z,21.20
2022-09-24T10:27:22.252Z,21.60
2022-09-24T10:31:26.472Z,22.40
2022-09-24T10:35:35.078Z,22.50
2022-09-24T10:39:36.138Z,22.80
2022-09-24T10:43:37.242Z,21.80
2022-09-24T10:47:43.097Z,21.30
2022-09-24T10:52:10.847Z,21.70
2022-09-24T10:56:21.868Z,20.40
2022-09-24T11:00:25.861Z,20.70
2022-09-24T11:04:43.446Z,20.50
2022-09-24T11:09:00.104Z,22.10
2022-09-24T11:13:24.960Z,21.60
2022-09-24T11:17:48.012Z,21.00
2022-09-24T11:22:11.037Z,21.60
2022-09-24T11:26:37.186Z,22.80
2022-09-24T11:30:44.047Z,21.90
2022-09-24T11:35:08.524Z,22.30
2022-09-24T11:39:20.733Z,23.50
2022-09-24T11:43:29.465Z,23.00
2022-09-24T11:47:53.658Z,22.10
2022-09-24T11:52:15.328Z,21.30
2022-09-24T11:56:26.080Z,22.60
2022-09-24T12:00:31.775Z,23.50
2022-09-24T12:04:58.471Z,23.90
2022-09-24T12:09:15.455Z,23.40
2022-09-24T12:13:41.457Z,23.50
2022-09-24T12:17:58.305Z,22.60
2022-09-24T12:22:01.790Z,21.80
2022-09-24T12:26:05.321Z,22.30
2022-09-24T12:30:18.067Z,23.00
2022-09-24T12:34:39.981Z,23.30
2022-09-24T12:38:50.922Z,22.80
2022-09-24T12:42:55.905Z,22.40
2022-09-24T12:46:58.791Z,22.60
2022-09-24T12:51:02.870Z,23.10
2022-09-24T12:55:05.324Z,21.10
2022-09-24T12:59:10.306Z,22.50
2022-09-24T13:03:39.064Z,23.20
2022-09-24T13:07:40.699Z,22.60
2022-09-24T13:11:41.885Z,22.90
2022-09-24T13:15:44.110Z,23.80
2022-09-24T13:19:46.784Z,23.80
2022-09-24T13:23:49.489Z,24.00
2022-09-24T13:27:59.505Z,24.70
2022-09-24T13:32:02.638Z,23.20
2022-09-24T13:36:19.698Z,23.10
2022-09-24T13:40:30.671Z,23.70
2022-09-24T13:44:38.350Z,22.40
2022-09-24T13:48:52.415Z,23.70
2022-09-24T13:53:00.199Z,21.40
2022-09-24T13:57:10.827Z,22.30
2022-09-24T14:01:21.680Z,22.80
2022-09-24T14:05:23.540Z,22.80
2022-09-24T14:09:33.597Z,23.00
2022-09-24T14:13:37.479Z,22.40
2022-09-24T14:17:38.549Z,22.60
2022-09-24T14:21:46.497Z,22.50
2022-09-24T14:25:50.825Z,22.10
2022-09-24T14:29:55.662Z,21.30
2022-09-24T14:34:00.586Z,21.80
2022-09-24T14:38:09.403Z,22.30
2022-09-24T14:42:14.395Z,22.30
2022-09-24T14:46:26.086Z,21.80
2022-09-24T14:50:39.370Z,22.70
2022-09-24T14:54:40.672Z,22.70
2022-09-24T14:58:42.015Z,22.50
2022-09-24T15:02:43.273Z,22.50
2022-09-24T15:06:47.108Z,21.60
2022-09-24T15:10:59.432Z,21.20
2022-09-24T15:15:04.035Z,22.00
2022-09-24T15:19:27.231Z,22.10
2022-09-24T15:23:28.324Z,21.70
2022-09-24T15:27:33.307Z,22.00
2022-09-24T15:31:34.574Z,21.30
2022-09-24T15:35:36.015Z,20.80
2022-09-24T15:39:37.779Z,20.60
2022-09-24T15:43:38.962Z,20.60
2022-09-24T15:47:40.566Z,20.50
2022-09-24T15:51:41.708Z,20.40
2022-09-24T15:55:44.955Z,20.60
2022-09-24T15:59:46.102Z,20.70
2022-09-24T16:03:47.131Z,21.00
2022-09-24T16:07:48.694Z,21.40
2022-09-24T16:11:49.728Z,21.30
2022-09-24T16:15:50.845Z,21.20
2022-09-24T16:19:51.794Z,20.90
2022-09-24T16:23:56.549Z,21.70
2022-09-24T16:27:58.321Z,21.80
2022-09-24T16:32:01.300Z,22.00
2022-09-24T16:36:06.857Z,22.00
2022-09-24T16:40:08.914Z,21.90
2022-09-24T16:44:12.190Z,21.60
2022-09-24T16:48:13.276Z,21.20
2022-09-24T16:52:14.370Z,21.30
2022-09-24T16:56:16.837Z,21.40
2022-09-24T17:00:18.696Z,21.30
2022-09-24T17:04:19.687Z,21.30
2022-09-24T17:08:20.686Z,21.50
2022-09-24T17:12:24.932Z,21.60
2022-09-24T17:16:26.552Z,21.50
2022-09-24T17:20:27.594Z,21.40
2022-09-24T17:24:28.668Z,21.40
2022-09-24T17:28:37.674Z,21.40
2022-09-24T17:32:38.674Z,21.20
2022-09-24T17:36:39.698Z,21.30
2022-09-24T17:40:40.727Z,21.30
2022-09-24T17:44:41.796Z,21.00
2022-09-24T17:48:45.179Z,20.90
2022-09-24T17:52:46.524Z,18.70
2022-09-24T17:56:47.482Z,19.40
2022-09-24T18:00:49.975Z,17.60
2022-09-24T18:04:51.042Z,16.50
2022-09-24T18:08:52.383Z,16.20
2022-09-24T18:12:54.383Z,16.70
2022-09-24T18:16:55.399Z,17.20
2022-09-24T18:21:02.797Z,15.40
2022-09-24T18:25:05.425Z,15.10
2022-09-24T18:29:17.078Z,15.50
2022-09-24T18:33:18.099Z,14.90
2022-09-24T18:37:19.672Z,14.20
2022-09-24T18:41:25.586Z,13.80
2022-09-24T18:45:27.745Z,13.90
2022-09-24T18:49:28.813Z,14.00
2022-09-24T18:53:32.512Z,15.30
2022-09-24T18:57:33.537Z,15.50
2022-09-24T19:01:34.850Z,15.30
2022-09-24T19:05:36.207Z,14.60
2022-09-24T19:09:37.306Z,14.70
2022-09-24T19:13:40.181Z,14.00
2022-09-24T19:17:41.115Z,14.60
2022-09-24T19:21:42.196Z,16.20
2022-09-24T19:25:43.919Z,16.70
2022-09-24T19:29:44.886Z,16.40
2022-09-24T19:33:46.381Z,16.70
2022-09-24T19:37:47.710Z,16.20
2022-09-24T19:41:50.848Z,15.50
2022-09-24T19:45:57.621Z,15.80
2022-09-24T19:49:58.946Z,16.50
2022-09-24T19:54:08.236Z,16.60
2022-09-24T19:58:09.583Z,16.80
2022-09-24T20:02:11.164Z,16.50
2022-09-24T20:06:15.534Z,16.60
2022-09-24T20:10:16.746Z,16.50
2022-09-24T20:14:20.010Z,16.90
2022-09-24T20:18:21.092Z,16.90
2022-09-24T20:22:22.133Z,16.90
2022-09-24T20:26:42.465Z,16.90
2022-09-24T20:30:43.699Z,17.10
2022-09-24T20:34:45.136Z,16.50
2022-09-24T20:38:47.669Z,16.10
2022-09-24T20:42:48.778Z,16.50
2022-09-24T20:46:50.496Z,16.80
2022-09-24T20:50:51.573Z,16.80
2022-09-24T20:54:52.836Z,16.80
2022-09-24T20:58:53.834Z,17.00
2022-09-24T21:02:55.666Z,17.10
2022-09-24T21:06:56.639Z,17.10
2022-09-24T21:11:07.075Z,17.20
2022-09-24T21:15:10.831Z,17.10
2022-09-24T21:19:13.271Z,17.00
2022-09-24T21:23:14.278Z,17.10
2022-09-24T21:27:15.592Z,17.00
2022-09-24T21:31:20.699Z,17.10
2022-09-24T21:35:21.828Z,17.10
2022-09-24T21:39:23.898Z,17.20
2022-09-24T21:43:25.221Z,17.10
2022-09-24T21:47:26.294Z,17.20
2022-09-24T21:51:29.392Z,17.20
2022-09-24T21:55:32.304Z,17.30
2022-09-24T21:59:51.555Z,17.20
2022-09-24T22:03:54.953Z,16.90
2022-09-24T22:07:55.946Z,17.00
2022-09-24T22:11:59.941Z,17.10
2022-09-24T22:16:01.561Z,17.20
2022-09-24T22:20:03.337Z,17.30
2022-09-24T22:24:05.084Z,17.20
2022-09-24T22:28:06.362Z,17.20
2022-09-24T22:32:07.940Z,17.20
2022-09-24T22:36:09.629Z,17.20
2022-09-24T22:40:11.029Z,17.00
2022-09-24T22:44:12.896Z,17.20
2022-09-24T22:48:14.118Z,17.10
2022-09-24T22:52:15.178Z,17.20
2022-09-24T22:56:19.167Z,17.20
2022-09-24T23:00:20.609Z,16.90
2022-09-24T23:04:22.244Z,17.20
2022-09-24T23:08:23.557Z,17.10
2022-09-24T23:12:24.620Z,17.20
2022-09-24T23:16:28.336Z,17.10
2022-09-24T23:20:29.574Z,17.10
2022-09-24T23:24:30.798Z,16.70
2022-09-24T23:28:33.312Z,16.50
2022-09-24T23:32:34.511Z,16.90
2022-09-24T23:36:36.034Z,17.00
2022-09-24T23:40:37.406Z,16.80
2022-09-24T23:44:38.705Z,16.50
2022-09-24T23:48:41.246Z,16.90
2022-09-24T23:52:42.435Z,16.60
2022-09-24T23:56:43.497Z,16.30
